Time;durP1;ratioP1;P1;durP2;ratioP2;P2;SDS_P1;SDS_P2;PMS_P1;PMS_P2;Temp;Humidity;BMP_temperature;BMP_pressure;BME280_temperature;BME280_humidity;BME280_pressure;Samples;Min_cycle;Max_cycle;Signal;HPM_P1;HPM_P2
2023/04/03 00:01:03;;;;;;;0.10;0.10;;;;;;;2.43;100.00;97425.56;5016813;28;20182;-71
2023/04/03 00:03:28;;;;;;;0.10;0.10;;;;;;;2.39;100.00;97426.84;5045721;28;20236;-71
2023/04/03 00:05:54;;;;;;;0.10;0.10;;;;;;;2.30;100.00;97430.38;5046631;28;20213;-71
2023/04/03 00:08:19;;;;;;;0.20;0.20;;;;;;;2.22;100.00;97429.56;5033706;28;20651;-71
2023/04/03 00:10:45;;;;;;;0.20;0.20;;;;;;;2.23;100.00;97423.41;5038355;28;20204;-71
2023/04/03 00:13:11;;;;;;;0.10;0.10;;;;;;;2.30;100.00;97421.78;5053132;28;20186;-71
2023/04/03 00:15:37;;;;;;;0.10;0.10;;;;;;;2.19;100.00;97425.50;5033927;28;20236;-71
2023/04/03 00:18:03;;;;;;;0.10;0.10;;;;;;;2.26;100.00;97421.31;5033079;28;20182;-71
2023/04/03 00:20:29;;;;;;;0.20;0.20;;;;;;;2.24;100.00;97425.00;5036010;28;20565;-71
2023/04/03 00:22:54;;;;;;;0.10;0.10;;;;;;;2.25;100.00;97424.88;5052563;28;20290;-71
2023/04/03 00:25:20;;;;;;;0.20;0.20;;;;;;;2.33;100.00;97432.66;5052536;28;20183;-71
2023/04/03 00:27:46;;;;;;;0.00;0.00;;;;;;;2.43;100.00;97427.31;5041347;28;20185;-71
2023/04/03 00:30:15;;;;;;;0.20;0.20;;;;;;;2.35;100.00;97430.69;5037798;28;20611;-71
2023/04/03 00:32:40;;;;;;;0.20;0.20;;;;;;;2.25;100.00;97429.22;5037095;28;20179;-71
2023/04/03 00:35:06;;;;;;;0.10;0.10;;;;;;;2.35;100.00;97429.88;5015537;28;20187;-71
2023/04/03 00:37:32;;;;;;;0.10;0.10;;;;;;;2.37;100.00;97423.59;5033247;28;20189;-72
2023/04/03 00:39:57;;;;;;;0.20;0.20;;;;;;;2.38;100.00;97422.63;5034251;28;20186;-71
2023/04/03 00:42:23;;;;;;;0.20;0.20;;;;;;;2.31;100.00;97426.00;5033075;28;20650;-71
2023/04/03 00:44:49;;;;;;;0.10;0.10;;;;;;;2.23;100.00;97420.84;5032799;28;20175;-71
2023/04/03 00:47:17;;;;;;;0.20;0.20;;;;;;;2.24;100.00;97425.00;5033660;28;20687;-71
2023/04/03 00:49:44;;;;;;;0.20;0.20;;;;;;;2.14;100.00;97422.56;5032856;28;20654;-72
2023/04/03 00:52:13;;;;;;;0.10;0.10;;;;;;;2.14;100.00;97432.09;5033096;28;20576;-71
2023/04/03 00:54:42;;;;;;;0.20;0.20;;;;;;;2.12;100.00;97427.09;5047790;28;20579;-72
2023/04/03 00:57:08;;;;;;;0.20;0.20;;;;;;;2.17;100.00;97421.47;5043244;28;20195;-72
2023/04/03 00:59:38;;;;;;;0.10;0.10;;;;;;;2.21;100.00;97422.75;5032647;28;20259;-72
2023/04/03 01:02:04;;;;;;;0.20;0.20;;;;;;;2.28;100.00;97423.75;5032172;28;20215;-72
2023/04/03 01:04:41;;;;;;;0.10;0.10;;;;;;;2.29;100.00;97422.75;5032836;28;20190;-72
2023/04/03 01:07:10;;;;;;;0.20;0.20;;;;;;;2.17;100.00;97419.69;5032305;28;20194;-72
2023/04/03 01:09:37;;;;;;;0.20;0.20;;;;;;;2.28;100.00;97423.75;5039193;28;20174;-72
2023/04/03 01:12:29;;;;;;;0.13;0.13;;;;;;;2.34;100.00;97429.06;5051834;28;20616;-72
2023/04/03 01:14:57;;;;;;;0.10;0.10;;;;;;;2.36;100.00;97423.75;5052328;28;20219;-72
2023/04/03 01:17:38;;;;;;;0.10;0.10;;;;;;;2.09;100.00;97412.72;5032792;28;20178;-71
2023/04/03 01:20:27;;;;;;;0.10;0.10;;;;;;;2.17;100.00;97419.69;5052481;28;20670;-72
2023/04/03 01:23:05;;;;;;;0.10;0.10;;;;;;;2.19;100.00;97424.69;5048667;28;20174;-72
2023/04/03 01:25:31;;;;;;;0.10;0.10;;;;;;;2.26;100.00;97417.91;5027924;28;20509;-72
2023/04/03 01:27:56;;;;;;;0.20;0.20;;;;;;;2.25;100.00;97419.69;5054951;28;20189;-71
2023/04/03 01:30:30;;;;;;;0.10;0.10;;;;;;;2.27;100.00;97422.94;5039924;28;20210;-72
2023/04/03 01:32:55;;;;;;;0.10;0.10;;;;;;;2.24;100.00;97420.66;5036643;28;20178;-72
2023/04/03 01:35:21;;;;;;;0.10;0.10;;;;;;;2.15;100.00;97423.38;5036240;28;20198;-72
2023/04/03 01:37:46;;;;;;;0.10;0.10;;;;;;;2.21;100.00;97417.59;5045253;28;20182;-72
2023/04/03 01:40:11;;;;;;;0.10;0.10;;;;;;;2.18;100.00;97421.28;5055557;28;20190;-72
2023/04/03 01:42:37;;;;;;;0.20;0.20;;;;;;;2.14;100.00;97419.19;5055976;28;20265;-72
2023/04/03 01:45:02;;;;;;;0.13;0.13;;;;;;;2.11;100.00;97422.91;5055874;28;20225;-72
2023/04/03 01:47:28;;;;;;;0.20;0.20;;;;;;;2.20;100.00;97421.94;5042733;28;20182;-72
2023/04/03 01:49:53;;;;;;;0.10;0.10;;;;;;;2.25;100.00;97424.88;5055935;28;20185;-72
2023/04/03 01:52:18;;;;;;;0.10;0.10;;;;;;;2.18;100.00;97415.31;5055386;28;20174;-72
2023/04/03 01:54:44;;;;;;;0.20;0.20;;;;;;;2.25;100.00;97421.47;5045494;28;20328;-72
2023/04/03 01:57:10;;;;;;;0.10;0.10;;;;;;;2.23;100.00;97424.19;5049460;28;20285;-72
2023/04/03 01:59:35;;;;;;;0.10;0.10;;;;;;;2.15;100.00;97423.38;5019961;28;20198;-72
2023/04/03 02:02:00;;;;;;;0.13;0.13;;;;;;;2.22;100.00;97424.38;5036081;28;20238;-72
2023/04/03 02:04:26;;;;;;;0.10;0.10;;;;;;;2.16;100.00;97425.81;5023690;28;20195;-74
2023/04/03 02:06:51;;;;;;;0.10;0.10;;;;;;;2.25;100.00;97424.88;5021821;28;20187;-72
2023/04/03 02:09:16;;;;;;;0.10;0.10;;;;;;;2.12;100.00;97424.50;5016170;28;20194;-71
2023/04/03 02:11:42;;;;;;;0.10;0.10;;;;;;;2.23;100.00;97429.38;5021772;28;20213;-71
2023/04/03 02:14:07;;;;;;;0.10;0.10;;;;;;;2.23;100.00;97423.41;5035659;28;20538;-72
2023/04/03 02:16:32;;;;;;;0.10;0.10;;;;;;;2.51;100.00;97430.72;5022683;28;20274;-72
2023/04/03 02:18:58;;;;;;;0.20;0.20;;;;;;;2.33;100.00;97424.09;5015907;28;20183;-71
2023/04/03 02:21:24;;;;;;;0.10;0.10;;;;;;;2.29;100.00;97427.94;5021336;28;20187;-72
2023/04/03 02:23:49;;;;;;;0.10;0.10;;;;;;;2.44;100.00;97434.94;5032995;28;20209;-72
2023/04/03 02:26:16;;;;;;;0.10;0.10;;;;;;;2.42;99.16;97430.88;5035231;28;20190;-71
2023/04/03 02:28:41;;;;;;;0.20;0.20;;;;;;;2.50;97.20;97434.31;5035405;28;20186;-71
2023/04/03 02:31:08;;;;;;;0.10;0.10;;;;;;;2.51;98.05;97438.47;5019433;28;20635;-71
2023/04/03 02:33:36;;;;;;;0.20;0.20;;;;;;;2.31;97.67;97433.75;5031633;28;20197;-71
2023/04/03 02:36:02;;;;;;;0.10;0.10;;;;;;;2.24;97.93;97433.59;5033938;28;20183;-72
2023/04/03 02:38:27;;;;;;;0.13;0.13;;;;;;;2.40;98.05;97432.81;5035052;28;20198;-72
2023/04/03 02:40:52;;;;;;;0.10;0.10;;;;;;;2.40;96.93;97432.81;5035051;28;20189;-71
2023/04/03 02:43:18;;;;;;;0.10;0.10;;;;;;;2.38;96.82;97430.41;5030724;28;20211;-71
2023/04/03 02:45:43;;;;;;;0.17;0.17;;;;;;;2.08;95.53;97428.38;5018955;28;20183;-71
2023/04/03 02:48:09;;;;;;;0.13;0.13;;;;;;;2.14;97.58;97434.69;5034659;28;20185;-71
2023/04/03 02:50:34;;;;;;;0.10;0.10;;;;;;;2.31;97.79;97431.19;5034651;28;20289;-71
2023/04/03 02:53:00;;;;;;;0.20;0.20;;;;;;;2.37;97.45;97435.72;5033156;28;20658;-72
2023/04/03 02:55:25;;;;;;;0.10;0.10;;;;;;;2.33;97.85;97435.25;5019315;28;20175;-71
2023/04/03 02:57:51;;;;;;;0.10;0.10;;;;;;;2.36;97.67;97437.50;5027372;28;20207;-71
2023/04/03 03:00:16;;;;;;;0.10;0.10;;;;;;;2.32;97.90;97436.19;5018160;28;20516;-70
2023/04/03 03:02:42;;;;;;;0.10;0.10;;;;;;;2.40;96.88;97435.38;5028743;28;20226;-71
2023/04/03 03:05:08;;;;;;;0.20;0.20;;;;;;;2.38;96.37;97437.34;5017598;28;20191;-71
2023/04/03 03:07:34;;;;;;;0.07;0.07;;;;;;;2.33;95.76;97439.59;5015254;28;20194;-71
2023/04/03 03:09:59;;;;;;;0.10;0.10;;;;;;;2.29;95.34;97436.50;4997415;28;20290;-71
2023/04/03 03:12:24;;;;;;;0.20;0.20;;;;;;;2.27;96.07;97437.66;4998005;28;20176;-71
2023/04/03 03:14:50;;;;;;;0.10;0.10;;;;;;;2.23;96.55;97439.72;5015077;28;20183;-71
2023/04/03 03:17:16;;;;;;;0.10;0.10;;;;;;;2.20;94.49;97427.13;5014969;28;20240;-71
2023/04/03 03:19:41;;;;;;;0.10;0.10;;;;;;;2.30;95.74;97430.38;4999475;28;20182;-71
2023/04/03 03:22:07;;;;;;;0.10;0.10;;;;;;;2.26;96.02;97426.50;5028399;28;20650;-71
2023/04/03 03:24:32;;;;;;;0.10;0.10;;;;;;;2.37;95.43;97425.38;5014645;28;20203;-71
2023/04/03 03:26:57;;;;;;;0.10;0.10;;;;;;;2.33;94.54;97430.06;5014774;28;20190;-71
2023/04/03 03:29:23;;;;;;;0.20;0.20;;;;;;;2.22;94.92;97416.63;5023960;28;20183;-71
2023/04/03 03:31:48;;;;;;;0.10;0.10;;;;;;;2.29;94.16;97426.16;5030119;28;20211;-71
2023/04/03 03:34:13;;;;;;;0.17;0.17;;;;;;;2.27;93.91;97422.94;5014716;28;20287;-71
2023/04/03 03:36:39;;;;;;;0.17;0.17;;;;;;;2.34;94.05;97421.31;5014346;28;20214;-71
2023/04/03 03:39:04;;;;;;;0.10;0.10;;;;;;;2.33;93.80;97422.31;5018709;28;20189;-71
2023/04/03 03:41:30;;;;;;;0.10;0.10;;;;;;;2.21;94.64;97420.19;5033664;28;20214;-70
2023/04/03 03:43:56;;;;;;;0.13;0.13;;;;;;;2.03;95.38;97420.28;5033982;28;20182;-71
2023/04/03 03:46:21;;;;;;;0.20;0.20;;;;;;;2.10;95.46;97418.69;5032937;28;20187;-71
2023/04/03 03:48:46;;;;;;;0.10;0.10;;;;;;;1.96;95.27;97419.28;5010658;28;20188;-70
2023/04/03 03:51:12;;;;;;;0.20;0.20;;;;;;;1.99;96.22;97419.00;5014006;28;20203;-71
2023/04/03 03:53:37;;;;;;;0.10;0.10;;;;;;;1.92;96.12;97415.41;5014116;28;20190;-70
2023/04/03 03:56:03;;;;;;;0.20;0.20;;;;;;;1.92;96.33;97418.00;5027947;28;20194;-71
2023/04/03 03:58:28;;;;;;;0.10;0.10;;;;;;;1.88;96.80;97424.44;5029701;28;20190;-71
2023/04/03 04:00:54;;;;;;;0.10;0.10;;;;;;;1.81;97.10;97418.28;5018364;28;20534;-71
2023/04/03 04:03:20;;;;;;;0.20;0.20;;;;;;;1.91;96.48;97424.94;5030150;28;20289;-71
2023/04/03 04:05:46;;;;;;;0.20;0.20;;;;;;;1.90;96.35;97419.91;5013487;28;20179;-71
2023/04/03 04:08:11;;;;;;;0.20;0.20;;;;;;;1.99;95.95;97419.00;5014680;28;20724;-71
2023/04/03 04:10:38;;;;;;;0.10;0.10;;;;;;;1.96;94.42;97422.69;5033224;28;20199;-71
2023/04/03 04:13:03;;;;;;;0.10;0.10;;;;;;;1.99;95.17;97419.00;5032879;28;20190;-71
2023/04/03 04:15:29;;;;;;;0.20;0.20;;;;;;;1.95;93.52;97431.41;5033104;28;20179;-71
2023/04/03 04:17:54;;;;;;;0.10;0.10;;;;;;;1.93;90.91;97440.28;5032959;28;20638;-71
2023/04/03 04:20:20;;;;;;;0.20;0.20;;;;;;;2.04;91.96;97430.47;5015583;28;20607;-72
2023/04/03 04:22:45;;;;;;;0.10;0.10;;;;;;;2.06;91.28;97438.09;4996037;28;20187;-71
2023/04/03 04:25:11;;;;;;;0.10;0.10;;;;;;;2.04;90.29;97430.47;5013587;28;20674;-71
2023/04/03 04:27:36;;;;;;;0.10;0.10;;;;;;;2.03;90.64;97428.03;5013560;28;20266;-71
2023/04/03 04:30:03;;;;;;;0.17;0.17;;;;;;;2.04;90.04;97427.88;5015689;28;20206;-71
2023/04/03 04:32:28;;;;;;;0.10;0.10;;;;;;;2.02;89.54;97423.84;5031237;28;20184;-71
2023/04/03 04:34:54;;;;;;;0.20;0.20;;;;;;;2.04;89.68;97427.06;5017160;28;20203;-71
2023/04/03 04:37:19;;;;;;;0.10;0.10;;;;;;;2.00;92.08;97429.19;5013284;28;20206;-71
2023/04/03 04:39:45;;;;;;;0.10;0.10;;;;;;;2.09;91.06;97427.41;5014562;28;20551;-71
2023/04/03 04:42:12;;;;;;;0.20;0.20;;;;;;;2.09;91.43;97433.41;5013262;28;20233;-71
2023/04/03 04:44:38;;;;;;;0.20;0.20;;;;;;;2.14;89.80;97427.75;5006649;28;20186;-72
2023/04/03 04:47:04;;;;;;;0.20;0.20;;;;;;;2.10;89.09;97431.63;5033032;28;20186;-71
2023/04/03 04:49:29;;;;;;;0.10;0.10;;;;;;;2.10;90.05;97421.28;5032867;28;20179;-71
2023/04/03 04:51:55;;;;;;;0.20;0.20;;;;;;;2.20;88.44;97431.47;5032880;28;20195;-71
2023/04/03 04:54:20;;;;;;;0.10;0.10;;;;;;;2.22;89.63;97425.19;5015864;28;20223;-71
2023/04/03 04:56:46;;;;;;;0.10;0.10;;;;;;;2.18;88.87;97434.22;5032129;28;20182;-71
2023/04/03 04:59:12;;;;;;;0.10;0.10;;;;;;;2.27;89.15;97438.47;5012927;28;20652;-71
2023/04/03 05:01:37;;;;;;;0.10;0.10;;;;;;;2.07;89.01;97432.72;5019594;28;20253;-71
2023/04/03 05:04:03;;;;;;;0.10;0.10;;;;;;;2.19;88.05;97438.41;5050399;28;20190;-72
2023/04/03 05:06:29;;;;;;;0.10;0.10;;;;;;;2.27;88.10;97438.47;5034306;28;20611;-71
2023/04/03 05:08:55;;;;;;;0.10;0.10;;;;;;;2.42;88.74;97446.41;5045754;28;20511;-71
2023/04/03 05:11:20;;;;;;;0.20;0.20;;;;;;;2.33;88.82;97442.19;5052200;28;20205;-72
2023/04/03 05:13:46;;;;;;;0.10;0.10;;;;;;;2.40;87.67;97443.97;5035282;28;20191;-72
2023/04/03 05:16:11;;;;;;;0.10;0.10;;;;;;;2.63;86.35;97457.09;5034243;28;20184;-71
2023/04/03 05:18:36;;;;;;;0.10;0.10;;;;;;;2.59;86.31;97450.63;5051906;28;20189;-71
2023/04/03 05:21:02;;;;;;;0.10;0.10;;;;;;;2.47;85.58;97457.88;5052384;28;20197;-71
2023/04/03 05:23:27;;;;;;;0.10;0.10;;;;;;;2.39;85.10;97454.50;5052565;28;20586;-71
2023/04/03 05:25:53;;;;;;;0.20;0.20;;;;;;;2.48;85.02;97456.09;5035217;28;20253;-71
2023/04/03 05:28:18;;;;;;;0.10;0.10;;;;;;;2.54;83.43;97458.06;5051155;28;20228;-72
2023/04/03 05:30:43;;;;;;;0.10;0.10;;;;;;;2.53;83.95;97456.44;5034188;28;22373;-71
2023/04/03 05:33:09;;;;;;;0.10;0.10;;;;;;;2.47;83.42;97464.84;5048759;28;20193;-71
2023/04/03 05:35:38;;;;;;;0.10;0.10;;;;;;;2.55;83.18;97462.28;5043700;28;20205;-71
2023/04/03 05:38:04;;;;;;;0.10;0.10;;;;;;;2.58;82.82;97466.31;5047131;28;20182;-71
2023/04/03 05:40:30;;;;;;;0.10;0.10;;;;;;;2.46;82.62;97470.97;5051871;28;20647;-71
2023/04/03 05:42:55;;;;;;;0.20;0.20;;;;;;;2.34;83.56;97465.28;5051410;28;20880;-71
2023/04/03 05:45:20;;;;;;;0.10;0.10;;;;;;;2.34;84.02;97462.69;5051855;28;20184;-71
2023/04/03 05:47:47;;;;;;;0.17;0.17;;;;;;;2.40;83.99;97463.84;5042252;28;20186;-71
2023/04/03 05:50:12;;;;;;;0.20;0.20;;;;;;;2.64;83.65;97461.31;5033199;28;20194;-71
2023/04/03 05:52:42;;;;;;;0.10;0.10;;;;;;;2.59;83.10;97468.75;5048417;28;20209;-71
2023/04/03 05:55:08;;;;;;;0.10;0.10;;;;;;;2.54;84.66;97476.16;5032332;28;20577;-71
2023/04/03 05:57:33;;;;;;;0.17;0.17;;;;;;;2.76;83.13;97480.72;5031344;28;20186;-71
2023/04/03 05:59:58;;;;;;;0.10;0.10;;;;;;;2.70;84.10;97478.78;5034403;28;20210;-71
2023/04/03 06:02:25;;;;;;;0.10;0.10;;;;;;;2.71;84.00;97479.59;5033802;28;20227;-70
2023/04/03 06:04:51;;;;;;;0.20;0.20;;;;;;;2.69;85.57;97482.34;5038548;28;20198;-70
2023/04/03 06:07:20;;;;;;;0.10;0.10;;;;;;;2.59;85.36;97478.28;5034617;28;20175;-71
2023/04/03 06:09:48;;;;;;;0.10;0.10;;;;;;;2.48;84.59;97476.81;5034320;28;20219;-71
2023/04/03 06:12:14;;;;;;;0.20;0.20;;;;;;;2.31;85.96;97477.72;5027792;28;20194;-71
2023/04/03 06:14:40;;;;;;;0.10;0.10;;;;;;;2.23;87.10;97481.09;5036011;28;20215;-70
2023/04/03 06:17:07;;;;;;;0.10;0.10;;;;;;;2.39;87.52;97477.75;5042600;28;20182;-71
2023/04/03 06:19:32;;;;;;;0.10;0.10;;;;;;;2.46;87.19;97476.97;5048186;28;20658;-71
2023/04/03 06:21:58;;;;;;;0.10;0.10;;;;;;;2.62;86.15;97486.53;5048936;28;20260;-71
2023/04/03 06:24:24;;;;;;;0.10;0.10;;;;;;;2.49;87.26;97489.59;5044758;28;20198;-70
2023/04/03 06:26:52;;;;;;;0.10;0.10;;;;;;;2.62;86.16;97491.69;5035679;28;20240;-71
2023/04/03 06:29:18;;;;;;;0.10;0.10;;;;;;;2.53;85.98;97497.84;5035324;28;20186;-71
2023/04/03 06:31:44;;;;;;;0.10;0.10;;;;;;;2.44;86.59;97493.63;5043637;28;20218;-72
2023/04/03 06:34:11;;;;;;;0.10;0.10;;;;;;;2.40;87.89;97487.13;5035326;28;20190;-71
2023/04/03 06:36:36;;;;;;;0.20;0.20;;;;;;;2.37;87.54;97492.63;5046269;28;20182;-71
2023/04/03 06:39:03;;;;;;;0.10;0.10;;;;;;;2.52;86.75;97491.03;5044383;28;20217;-71
2023/04/03 06:41:28;;;;;;;0.10;0.10;;;;;;;2.72;87.60;97494.16;5048202;28;20293;-71
2023/04/03 06:43:56;;;;;;;0.17;0.17;;;;;;;2.88;85.38;97497.56;5032078;28;20226;-72
2023/04/03 06:46:22;;;;;;;0.10;0.10;;;;;;;2.56;85.75;97494.94;5017535;28;20178;-71
2023/04/03 06:48:49;;;;;;;0.10;0.10;;;;;;;2.57;86.34;97491.38;5017564;28;20182;-71
2023/04/03 06:51:23;;;;;;;0.10;0.10;;;;;;;2.53;86.24;97497.84;5047700;28;20253;-72
2023/04/03 06:53:50;;;;;;;0.10;0.10;;;;;;;2.50;87.26;97493.81;5052757;28;20186;-71
2023/04/03 06:56:16;;;;;;;0.20;0.20;;;;;;;2.47;87.77;97493.28;5054638;28;20190;-71
2023/04/03 06:58:42;;;;;;;0.20;0.20;;;;;;;2.39;88.39;97498.47;5054354;28;20186;-71
2023/04/03 07:01:09;;;;;;;0.20;0.20;;;;;;;2.49;87.29;97494.75;5038826;28;20647;-70
2023/04/03 07:03:36;;;;;;;0.10;0.10;;;;;;;2.50;87.45;97503.34;5018446;28;20270;-72
2023/04/03 07:06:02;;;;;;;0.10;0.10;;;;;;;2.66;87.13;97500.78;5044201;28;20255;-71
2023/04/03 07:08:27;;;;;;;0.20;0.20;;;;;;;2.50;87.94;97509.31;5054651;28;20663;-71
2023/04/03 07:10:52;;;;;;;0.20;0.20;;;;;;;2.48;88.67;97500.91;5044029;28;20213;-71
2023/04/03 07:13:18;;;;;;;0.10;0.10;;;;;;;2.70;87.21;97511.63;5035171;28;20210;-71
2023/04/03 07:15:43;;;;;;;0.17;0.17;;;;;;;2.74;86.22;97516.31;5035074;28;20206;-71
2023/04/03 07:18:09;;;;;;;0.10;0.10;;;;;;;2.90;86.33;97511.16;5034463;28;20183;-71
2023/04/03 07:20:34;;;;;;;0.20;0.20;;;;;;;3.14;85.65;97523.31;5039925;28;20197;-72
2023/04/03 07:23:01;;;;;;;0.10;0.10;;;;;;;2.95;84.78;97505.50;5051351;28;20198;-71
2023/04/03 07:25:27;;;;;;;0.20;0.20;;;;;;;3.05;84.65;97513.94;5035391;28;20174;-71
2023/04/03 07:27:54;;;;;;;0.10;0.10;;;;;;;3.21;85.58;97518.28;5033306;28;20655;-71
2023/04/03 07:30:19;;;;;;;0.10;0.10;;;;;;;3.06;86.12;97517.31;5033986;28;20186;-71
2023/04/03 07:32:45;;;;;;;0.10;0.10;;;;;;;3.33;86.14;97511.81;5037843;28;20182;-71
2023/04/03 07:35:11;;;;;;;0.10;0.10;;;;;;;3.14;85.87;97518.13;5042377;28;20190;-71
2023/04/03 07:37:36;;;;;;;0.10;0.10;;;;;;;2.89;87.04;97519.09;5034090;28;20225;-71
2023/04/03 07:40:03;;;;;;;0.10;0.10;;;;;;;2.85;86.63;97518.59;5052419;28;20607;-71
2023/04/03 07:42:28;;;;;;;0.10;0.10;;;;;;;3.25;84.75;97535.13;5054014;28;20228;-71
2023/04/03 07:44:54;;;;;;;0.10;0.10;;;;;;;3.36;85.31;97524.44;5054008;28;20205;-71
2023/04/03 07:47:20;;;;;;;0.10;0.10;;;;;;;3.39;84.88;97533.69;5054135;28;20619;-71
2023/04/03 07:49:45;;;;;;;0.10;0.10;;;;;;;4.17;87.95;97529.47;5054042;28;20174;-70
2023/04/03 07:52:11;;;;;;;0.10;0.10;;;;;;;3.72;86.97;97527.47;5035797;28;20258;-70
2023/04/03 07:54:37;;;;;;;0.10;0.10;;;;;;;3.99;84.57;97531.47;5034052;28;20206;-69
2023/04/03 07:57:02;;;;;;;0.20;0.20;;;;;;;3.82;84.79;97524.69;5015088;28;20214;-69
2023/04/03 07:59:28;;;;;;;0.10;0.10;;;;;;;3.82;85.24;97529.88;5016149;28;20186;-69
2023/04/03 08:01:53;;;;;;;0.10;0.10;;;;;;;4.10;83.21;97538.88;5015680;28;20230;-69
2023/04/03 08:04:18;;;;;;;0.10;0.10;;;;;;;3.87;82.88;97538.78;5032912;28;20190;-69
2023/04/03 08:06:44;;;;;;;0.10;0.10;;;;;;;3.57;84.04;97563.59;5033888;28;20194;-69
2023/04/03 08:09:12;;;;;;;0.10;0.10;;;;;;;3.54;85.18;97545.00;5033573;28;20261;-68
2023/04/03 08:11:39;;;;;;;0.10;0.10;;;;;;;3.73;84.69;97537.66;5048591;28;20205;-69
2023/04/03 08:14:05;;;;;;;0.10;0.10;;;;;;;4.00;83.81;97548.66;5033776;28;20345;-70
2023/04/03 08:16:30;;;;;;;0.20;0.20;;;;;;;3.94;84.72;97538.94;5033772;28;20269;-68
2023/04/03 08:18:56;;;;;;;0.10;0.10;;;;;;;4.01;82.56;97537.31;5035342;28;20207;-69
2023/04/03 08:21:22;;;;;;;0.17;0.17;;;;;;;3.79;82.22;97556.16;5024755;28;20186;-69
2023/04/03 08:23:52;;;;;;;0.10;0.10;;;;;;;3.72;83.16;97543.03;5052622;28;20255;-69
2023/04/03 08:26:21;;;;;;;0.10;0.10;;;;;;;3.60;84.10;97552.94;5047111;28;20174;-69
2023/04/03 08:28:47;;;;;;;0.00;0.00;;;;;;;3.48;84.55;97545.66;5034179;28;20183;-68
2023/04/03 08:31:16;;;;;;;0.10;0.10;;;;;;;3.65;83.92;97545.47;5036079;28;20221;-68
2023/04/03 08:33:42;;;;;;;0.10;0.10;;;;;;;3.60;84.43;97542.56;5051868;28;20559;-69
2023/04/03 08:36:34;;;;;;;0.10;0.10;;;;;;;3.93;83.61;97548.50;5049388;28;20186;-70
2023/04/03 08:38:59;;;;;;;0.10;0.10;;;;;;;4.04;82.68;97553.31;5043563;28;20190;-68
2023/04/03 08:41:32;;;;;;;0.10;0.10;;;;;;;4.00;82.28;97559.81;5050635;28;20186;-69
2023/04/03 08:44:18;;;;;;;0.10;0.10;;;;;;;4.30;80.42;97553.06;5053209;28;20260;-69
2023/04/03 08:47:02;;;;;;;0.20;0.20;;;;;;;4.33;79.72;97555.34;5046111;28;20182;-69
2023/04/03 08:50:12;;;;;;;0.13;0.13;;;;;;;4.25;78.60;97544.97;5033181;28;20245;-69
2023/04/03 08:52:45;;;;;;;0.10;0.10;;;;;;;4.25;78.03;97541.56;4972590;28;20275;-69
2023/04/03 08:55:23;;;;;;;0.10;0.10;;;;;;;4.30;79.17;97554.84;5025648;28;20199;-70
2023/04/03 08:57:51;;;;;;;0.10;0.10;;;;;;;4.35;77.35;97565.53;5045875;28;20265;-69
2023/04/03 09:00:20;;;;;;;0.10;0.10;;;;;;;4.32;77.34;97555.50;5051647;28;20542;-69
2023/04/03 09:03:04;;;;;;;0.10;0.10;;;;;;;4.94;75.65;97567.53;5028785;28;20222;-70
2023/04/03 09:05:43;;;;;;;0.10;0.10;;;;;;;4.75;75.14;97557.56;5032923;28;20170;-69
2023/04/03 09:08:18;;;;;;;0.00;0.00;;;;;;;4.60;77.98;97554.91;5033619;28;20174;-69
2023/04/03 09:10:44;;;;;;;0.10;0.10;;;;;;;4.78;77.91;97551.25;5035300;28;20202;-69
2023/04/03 09:13:17;;;;;;;0.10;0.10;;;;;;;5.02;77.90;97558.88;5049460;28;20189;-69
2023/04/03 09:15:44;;;;;;;0.10;0.10;;;;;;;4.67;77.26;97556.81;5043267;28;20171;-69
2023/04/03 09:18:19;;;;;;;0.10;0.10;;;;;;;4.73;77.33;97553.53;5045347;28;20186;-69
2023/04/03 09:20:54;;;;;;;0.13;0.13;;;;;;;5.06;76.46;97557.56;5033548;28;20185;-69
2023/04/03 09:23:26;;;;;;;0.10;0.10;;;;;;;4.86;76.25;97546.78;5034710;28;20568;-69
2023/04/03 09:26:01;;;;;;;0.10;0.10;;;;;;;4.79;76.59;97556.25;5038769;28;20182;-69
2023/04/03 09:28:29;;;;;;;0.10;0.10;;;;;;;4.75;76.55;97547.19;5042363;28;20198;-70
2023/04/03 09:30:54;;;;;;;0.10;0.10;;;;;;;4.59;77.08;97561.06;5031904;28;20217;-69
2023/04/03 09:33:21;;;;;;;0.10;0.10;;;;;;;4.67;77.02;97557.63;5048797;28;20269;-69
2023/04/03 09:35:48;;;;;;;0.10;0.10;;;;;;;4.86;76.74;97557.19;5034008;28;20200;-69
2023/04/03 09:38:13;;;;;;;0.10;0.10;;;;;;;4.89;74.98;97551.66;5045017;28;20178;-69
2023/04/03 09:40:41;;;;;;;0.10;0.10;;;;;;;4.67;76.28;97551.63;5051059;28;20639;-70
2023/04/03 09:43:27;;;;;;;0.10;0.10;;;;;;;4.55;77.47;97549.41;5051285;28;20654;-70
2023/04/03 09:45:53;;;;;;;0.20;0.20;;;;;;;4.47;77.77;97554.63;5055434;28;20247;-69
2023/04/03 09:48:23;;;;;;;0.10;0.10;;;;;;;4.65;76.29;97559.56;5051181;28;20210;-68
2023/04/03 09:50:52;;;;;;;0.10;0.10;;;;;;;4.40;76.59;97555.47;5036317;28;20667;-69
2023/04/03 09:53:33;;;;;;;0.10;0.10;;;;;;;4.39;76.10;97559.88;5054223;28;20182;-70
2023/04/03 09:56:00;;;;;;;0.10;0.10;;;;;;;4.31;77.11;97562.47;5054138;28;20185;-70
2023/04/03 09:58:29;;;;;;;0.10;0.10;;;;;;;4.38;76.80;97553.06;5040689;28;20190;-69
2023/04/03 10:00:57;;;;;;;0.20;0.20;;;;;;;4.52;76.90;97554.91;5055571;28;20251;-69
2023/04/03 10:03:31;;;;;;;0.20;0.20;;;;;;;4.37;75.12;97556.63;5023339;28;20230;-69
2023/04/03 10:05:58;;;;;;;0.10;0.10;;;;;;;4.29;76.79;97558.44;5023419;28;20264;-70
2023/04/03 10:08:34;;;;;;;0.10;0.10;;;;;;;4.28;74.91;97562.81;5020049;28;20237;-69
2023/04/03 10:11:08;;;;;;;0.10;0.10;;;;;;;4.30;75.08;97565.22;5035363;28;20747;-70
2023/04/03 10:13:33;;;;;;;0.10;0.10;;;;;;;4.35;73.38;97553.38;5005312;28;20179;-69
2023/04/03 10:16:12;;;;;;;0.10;0.10;;;;;;;4.29;72.39;97555.84;5032683;28;20187;-70
2023/04/03 10:18:44;;;;;;;0.10;0.10;;;;;;;4.52;72.26;97548.91;5021768;28;20189;-69
2023/04/03 10:21:53;;;;;;;0.10;0.10;;;;;;;4.50;72.43;97545.69;5032765;28;20188;-69
2023/04/03 10:24:28;;;;;;;0.10;0.10;;;;;;;4.63;70.95;97539.94;5013014;28;20195;-70
2023/04/03 10:27:06;;;;;;;0.10;0.10;;;;;;;4.65;71.52;97540.59;5031345;28;20632;-69
2023/04/03 10:29:40;;;;;;;0.10;0.10;;;;;;;4.80;69.55;97536.28;5027956;28;20670;-69
2023/04/03 10:32:29;;;;;;;0.10;0.10;;;;;;;4.69;70.56;97540.06;5023642;28;20214;-69
2023/04/03 10:35:17;;;;;;;0.10;0.10;;;;;;;4.83;69.62;97541.94;5015999;28;20175;-71
2023/04/03 10:37:58;;;;;;;0.10;0.10;;;;;;;4.50;71.10;97541.31;5015533;28;20211;-69
2023/04/03 10:40:39;;;;;;;0.00;0.00;;;;;;;4.53;69.44;97545.34;5015167;28;20184;-69
2023/04/03 10:43:17;;;;;;;0.10;0.10;;;;;;;4.65;70.37;97544.00;5008939;28;20551;-70
2023/04/03 10:45:53;;;;;;;0.10;0.10;;;;;;;4.81;69.38;97538.72;5034570;28;20194;-70
2023/04/03 10:48:42;;;;;;;0.10;0.10;;;;;;;4.96;69.41;97549.16;5033477;28;20174;-70
2023/04/03 10:51:57;;;;;;;0.10;0.10;;;;;;;4.59;70.29;97555.06;5034350;28;20214;-69
2023/04/03 10:54:26;;;;;;;0.10;0.10;;;;;;;4.54;70.51;97536.59;4971418;28;20198;-69
2023/04/03 10:57:01;;;;;;;0.10;0.10;;;;;;;4.61;69.69;97558.31;5018357;28;20620;-70
2023/04/03 10:59:35;;;;;;;0.13;0.13;;;;;;;4.76;69.58;97541.00;5015244;28;20189;-69
2023/04/03 11:02:07;;;;;;;0.10;0.10;;;;;;;4.71;68.70;97543.31;5021358;28;20632;-71
2023/04/03 11:04:38;;;;;;;0.10;0.10;;;;;;;4.65;67.74;97541.41;5034703;28;20171;-69
2023/04/03 11:07:21;;;;;;;0.10;0.10;;;;;;;4.68;67.40;97542.84;5015967;28;20207;-70
2023/04/03 11:09:53;;;;;;;0.10;0.10;;;;;;;5.02;67.29;97538.88;5034631;28;20253;-70
2023/04/03 11:12:26;;;;;;;0.20;0.20;;;;;;;5.01;67.15;97547.66;5034660;28;20594;-69
2023/04/03 11:14:54;;;;;;;0.00;0.00;;;;;;;4.66;67.55;97539.63;5029934;28;20171;-69
2023/04/03 11:17:20;;;;;;;0.10;0.10;;;;;;;4.76;68.88;97538.41;5033811;28;20186;-70
2023/04/03 11:20:00;;;;;;;0.10;0.10;;;;;;;4.50;68.24;97530.13;5016337;28;20188;-70
2023/04/03 11:22:50;;;;;;;0.10;0.10;;;;;;;4.76;67.80;97535.00;5016222;28;20290;-69
2023/04/03 11:25:25;;;;;;;0.10;0.10;;;;;;;4.79;66.81;97535.47;5033747;28;20183;-70
2023/04/03 11:27:59;;;;;;;0.10;0.10;;;;;;;4.68;65.78;97548.06;5007326;28;20190;-70
2023/04/03 11:30:27;;;;;;;0.10;0.10;;;;;;;4.70;62.81;97530.50;5014109;28;20255;-70
2023/04/03 11:33:21;;;;;;;0.10;0.10;;;;;;;4.79;62.58;97527.66;5032769;28;20213;-70
2023/04/03 11:35:51;;;;;;;0.10;0.10;;;;;;;4.72;60.77;97528.53;5021295;28;20193;-69
2023/04/03 11:38:23;;;;;;;0.10;0.10;;;;;;;4.51;59.80;97531.75;5033337;28;20218;-70
2023/04/03 11:40:50;;;;;;;0.10;0.10;;;;;;;4.69;58.69;97528.88;5033950;28;20257;-69
2023/04/03 11:43:28;;;;;;;0.10;0.10;;;;;;;4.78;58.53;97523.47;5033086;28;20643;-70
2023/04/03 11:46:04;;;;;;;0.10;0.10;;;;;;;4.88;58.33;97520.66;5019657;28;20547;-69